sensor_id;sensor_type;location;lat;lon;timestamp;temperature;humidity
18868;DHT22;9563;49.240;9.088;2022-11-20T00:01:28;4.40;99.90
18868;DHT22;9563;49.240;9.088;2022-11-20T00:03:56;4.30;99.90
18868;DHT22;9563;49.240;9.088;2022-11-20T00:06:25;4.40;99.90
18868;DHT22;9563;49.240;9.088;2022-11-20T00:08:54;4.40;99.90
18868;DHT22;9563;49.240;9.088;2022-11-20T00:11:23;4.30;99.90
18868;DHT22;9563;49.240;9.088;2022-11-20T00:13:52;4.30;99.90
18868;DHT22;9563;49.240;9.088;2022-11-20T00:16:22;4.30;99.90
18868;DHT22;9563;49.240;9.088;2022-11-20T00:18:49;4.40;99.90
18868;DHT22;9563;49.240;9.088;2022-11-20T00:21:18;4.50;99.90
18868;DHT22;9563;49.240;9.088;2022-11-20T00:23:45;4.50;99.90
18868;DHT22;9563;49.240;9.088;2022-11-20T00:26:15;4.40;99.90
18868;DHT22;9563;49.240;9.088;2022-11-20T00:28:43;4.40;99.90
18868;DHT22;9563;49.240;9.088;2022-11-20T00:31:13;4.40;99.90
18868;DHT22;9563;49.240;9.088;2022-11-20T00:33:40;4.40;99.90
18868;DHT22;9563;49.240;9.088;2022-11-20T00:36:09;4.50;99.90
18868;DHT22;9563;49.240;9.088;2022-11-20T00:38:37;4.40;99.90
18868;DHT22;9563;49.240;9.088;2022-11-20T00:41:06;4.50;99.90
18868;DHT22;9563;49.240;9.088;2022-11-20T00:43:35;4.40;99.90
18868;DHT22;9563;49.240;9.088;2022-11-20T00:46:05;4.50;99.90
18868;DHT22;9563;49.240;9.088;2022-11-20T00:48:33;4.50;99.90
18868;DHT22;9563;49.240;9.088;2022-11-20T00:51:00;4.60;99.90
18868;DHT22;9563;49.240;9.088;2022-11-20T00:53:27;4.60;99.90
18868;DHT22;9563;49.240;9.088;2022-11-20T00:55:55;4.60;99.90
18868;DHT22;9563;49.240;9.088;2022-11-20T00:58:23;4.60;99.90
18868;DHT22;9563;49.240;9.088;2022-11-20T01:00:52;4.60;99.90
18868;DHT22;9563;49.240;9.088;2022-11-20T01:03:18;4.70;99.90
18868;DHT22;9563;49.240;9.088;2022-11-20T01:05:46;4.70;99.90
18868;DHT22;9563;49.240;9.088;2022-11-20T01:08:12;4.60;99.90
18868;DHT22;9563;49.240;9.088;2022-11-20T01:10:39;4.60;99.90
18868;DHT22;9563;49.240;9.088;2022-11-20T01:13:06;4.60;99.90
18868;DHT22;9563;49.240;9.088;2022-11-20T01:15:52;4.70;99.90
18868;DHT22;9563;49.240;9.088;2022-11-20T01:18:19;4.70;99.90
18868;DHT22;9563;49.240;9.088;2022-11-20T01:20:45;4.70;99.90
18868;DHT22;9563;49.240;9.088;2022-11-20T01:23:12;4.60;99.90
18868;DHT22;9563;49.240;9.088;2022-11-20T01:25:39;4.70;99.90
18868;DHT22;9563;49.240;9.088;2022-11-20T01:28:06;4.70;99.90
18868;DHT22;9563;49.240;9.088;2022-11-20T01:30:33;4.70;99.90
18868;DHT22;9563;49.240;9.088;2022-11-20T01:33:01;4.70;99.90
18868;DHT22;9563;49.240;9.088;2022-11-20T01:35:28;4.70;99.90
18868;DHT22;9563;49.240;9.088;2022-11-20T01:37:55;4.70;99.90
18868;DHT22;9563;49.240;9.088;2022-11-20T01:40:22;4.70;99.90
18868;DHT22;9563;49.240;9.088;2022-11-20T01:42:56;4.70;99.90
18868;DHT22;9563;49.240;9.088;2022-11-20T01:46:03;4.80;99.90
18868;DHT22;9563;49.240;9.088;2022-11-20T01:48:36;4.80;99.90
18868;DHT22;9563;49.240;9.088;2022-11-20T01:51:09;4.70;99.90
18868;DHT22;9563;49.240;9.088;2022-11-20T01:53:39;4.70;99.90
18868;DHT22;9563;49.240;9.088;2022-11-20T01:56:09;4.80;99.90
18868;DHT22;9563;49.240;9.088;2022-11-20T01:58:39;4.80;99.90
18868;DHT22;9563;49.240;9.088;2022-11-20T02:01:08;4.80;99.90
18868;DHT22;9563;49.240;9.088;2022-11-20T02:03:37;4.80;99.90
18868;DHT22;9563;49.240;9.088;2022-11-20T02:06:10;4.80;99.90
18868;DHT22;9563;49.240;9.088;2022-11-20T02:08:38;4.80;99.90
18868;DHT22;9563;49.240;9.088;2022-11-20T02:11:06;4.80;99.90
18868;DHT22;9563;49.240;9.088;2022-11-20T02:13:33;4.70;99.90
18868;DHT22;9563;49.240;9.088;2022-11-20T02:16:18;4.80;99.90
18868;DHT22;9563;49.240;9.088;2022-11-20T02:18:48;4.80;99.90
18868;DHT22;9563;49.240;9.088;2022-11-20T02:21:28;4.80;99.90
18868;DHT22;9563;49.240;9.088;2022-11-20T02:24:10;4.70;99.90
18868;DHT22;9563;49.240;9.088;2022-11-20T02:26:43;4.80;99.90
18868;DHT22;9563;49.240;9.088;2022-11-20T02:29:11;4.80;99.90
18868;DHT22;9563;49.240;9.088;2022-11-20T02:31:41;4.80;99.90
18868;DHT22;9563;49.240;9.088;2022-11-20T02:34:09;4.80;99.90
18868;DHT22;9563;49.240;9.088;2022-11-20T02:36:36;4.90;99.90
18868;DHT22;9563;49.240;9.088;2022-11-20T02:39:07;4.90;99.90
18868;DHT22;9563;49.240;9.088;2022-11-20T02:41:36;4.90;99.90
18868;DHT22;9563;49.240;9.088;2022-11-20T02:44:03;4.90;99.90
18868;DHT22;9563;49.240;9.088;2022-11-20T02:46:32;4.90;99.90
18868;DHT22;9563;49.240;9.088;2022-11-20T02:49:00;4.90;99.90
18868;DHT22;9563;49.240;9.088;2022-11-20T02:51:27;4.90;99.90
18868;DHT22;9563;49.240;9.088;2022-11-20T02:53:54;4.90;99.90
18868;DHT22;9563;49.240;9.088;2022-11-20T02:56:23;4.80;99.90
18868;DHT22;9563;49.240;9.088;2022-11-20T02:58:50;4.90;99.90
18868;DHT22;9563;49.240;9.088;2022-11-20T03:01:16;4.90;99.90
18868;DHT22;9563;49.240;9.088;2022-11-20T03:03:44;4.90;99.90
18868;DHT22;9563;49.240;9.088;2022-11-20T03:06:11;4.90;99.90
18868;DHT22;9563;49.240;9.088;2022-11-20T03:08:38;4.90;99.90
18868;DHT22;9563;49.240;9.088;2022-11-20T03:11:06;4.90;99.90
18868;DHT22;9563;49.240;9.088;2022-11-20T03:13:35;5.00;99.90
18868;DHT22;9563;49.240;9.088;2022-11-20T03:16:10;5.00;99.90
18868;DHT22;9563;49.240;9.088;2022-11-20T03:18:38;4.90;99.90
18868;DHT22;9563;49.240;9.088;2022-11-20T03:21:05;4.90;99.90
18868;DHT22;9563;49.240;9.088;2022-11-20T03:23:33;4.90;99.90
18868;DHT22;9563;49.240;9.088;2022-11-20T03:26:11;4.90;99.90
18868;DHT22;9563;49.240;9.088;2022-11-20T03:28:40;4.90;99.90
18868;DHT22;9563;49.240;9.088;2022-11-20T03:31:12;5.00;99.90
18868;DHT22;9563;49.240;9.088;2022-11-20T03:33:40;5.00;99.90
18868;DHT22;9563;49.240;9.088;2022-11-20T03:36:09;4.90;99.90
18868;DHT22;9563;49.240;9.088;2022-11-20T03:38:37;5.00;99.90
18868;DHT22;9563;49.240;9.088;2022-11-20T03:41:05;5.00;99.90
18868;DHT22;9563;49.240;9.088;2022-11-20T03:43:33;5.10;99.90
18868;DHT22;9563;49.240;9.088;2022-11-20T03:46:02;5.10;99.90
18868;DHT22;9563;49.240;9.088;2022-11-20T03:48:29;5.10;99.90
18868;DHT22;9563;49.240;9.088;2022-11-20T03:51:07;5.10;99.90
18868;DHT22;9563;49.240;9.088;2022-11-20T03:53:35;5.20;99.90
18868;DHT22;9563;49.240;9.088;2022-11-20T03:56:02;5.20;99.90
18868;DHT22;9563;49.240;9.088;2022-11-20T03:58:29;5.20;99.90
18868;DHT22;9563;49.240;9.088;2022-11-20T04:00:56;5.30;99.90
18868;DHT22;9563;49.240;9.088;2022-11-20T04:03:25;5.20;99.90
18868;DHT22;9563;49.240;9.088;2022-11-20T04:05:52;5.20;99.90
18868;DHT22;9563;49.240;9.088;2022-11-20T04:08:19;5.20;99.90
18868;DHT22;9563;49.240;9.088;2022-11-20T04:10:46;5.20;99.90
18868;DHT22;9563;49.240;9.088;2022-11-20T04:13:13;5.10;99.90
18868;DHT22;9563;49.240;9.088;2022-11-20T04:15:40;5.20;99.90
18868;DHT22;9563;49.240;9.088;2022-11-20T04:18:06;5.20;99.90
18868;DHT22;9563;49.240;9.088;2022-11-20T04:20:35;5.10;99.90
18868;DHT22;9563;49.240;9.088;2022-11-20T04:23:02;5.20;99.90
18868;DHT22;9563;49.240;9.088;2022-11-20T04:25:29;5.20;99.90
18868;DHT22;9563;49.240;9.088;2022-11-20T04:27:56;5.20;99.90
18868;DHT22;9563;49.240;9.088;2022-11-20T04:30:22;5.10;99.90
18868;DHT22;9563;49.240;9.088;2022-11-20T04:32:49;5.10;99.90
18868;DHT22;9563;49.240;9.088;2022-11-20T04:35:16;5.10;99.90
18868;DHT22;9563;49.240;9.088;2022-11-20T04:37:44;5.10;99.90
18868;DHT22;9563;49.240;9.088;2022-11-20T04:40:12;5.10;99.90
18868;DHT22;9563;49.240;9.088;2022-11-20T04:42:39;5.00;99.90
18868;DHT22;9563;49.240;9.088;2022-11-20T04:45:06;5.00;99.90
18868;DHT22;9563;49.240;9.088;2022-11-20T04:47:33;5.10;99.90
18868;DHT22;9563;49.240;9.088;2022-11-20T04:50:00;5.10;99.90
18868;DHT22;9563;49.240;9.088;2022-11-20T04:52:27;5.00;99.90
18868;DHT22;9563;49.240;9.088;2022-11-20T04:54:55;5.00;99.90
18868;DHT22;9563;49.240;9.088;2022-11-20T04:57:22;5.10;99.90
18868;DHT22;9563;49.240;9.088;2022-11-20T04:59:49;5.20;99.90
18868;DHT22;9563;49.240;9.088;2022-11-20T05:02:16;5.20;99.90
18868;DHT22;9563;49.240;9.088;2022-11-20T05:04:43;5.30;99.90
18868;DHT22;9563;49.240;9.088;2022-11-20T05:07:10;5.40;99.90
18868;DHT22;9563;49.240;9.088;2022-11-20T05:09:37;5.40;99.90
18868;DHT22;9563;49.240;9.088;2022-11-20T05:12:07;5.50;99.90
18868;DHT22;9563;49.240;9.088;2022-11-20T05:14:34;5.50;99.90
18868;DHT22;9563;49.240;9.088;2022-11-20T05:17:01;5.50;99.90
18868;DHT22;9563;49.240;9.088;2022-11-20T05:19:28;5.60;99.90
18868;DHT22;9563;49.240;9.088;2022-11-20T05:21:55;5.50;99.90
18868;DHT22;9563;49.240;9.088;2022-11-20T05:24:21;5.60;99.90
18868;DHT22;9563;49.240;9.088;2022-11-20T05:26:48;5.60;99.90
18868;DHT22;9563;49.240;9.088;2022-11-20T05:29:16;5.60;99.90
18868;DHT22;9563;49.240;9.088;2022-11-20T05:31:43;5.70;99.90
18868;DHT22;9563;49.240;9.088;2022-11-20T05:34:10;5.60;99.90
18868;DHT22;9563;49.240;9.088;2022-11-20T05:36:37;5.70;99.90
18868;DHT22;9563;49.240;9.088;2022-11-20T05:39:04;5.70;99.90
18868;DHT22;9563;49.240;9.088;2022-11-20T05:41:32;5.70;99.90
18868;DHT22;9563;49.240;9.088;2022-11-20T05:43:59;5.70;99.90
18868;DHT22;9563;49.240;9.088;2022-11-20T05:46:28;5.80;99.90
18868;DHT22;9563;49.240;9.088;2022-11-20T05:48:55;5.80;99.90
18868;DHT22;9563;49.240;9.088;2022-11-20T05:51:22;5.90;99.90
18868;DHT22;9563;49.240;9.088;2022-11-20T05:53:49;5.90;99.90
18868;DHT22;9563;49.240;9.088;2022-11-20T05:56:18;6.00;99.90
18868;DHT22;9563;49.240;9.088;2022-11-20T05:58:45;6.00;99.90
18868;DHT22;9563;49.240;9.088;2022-11-20T06:01:14;6.10;99.90
18868;DHT22;9563;49.240;9.088;2022-11-20T06:03:43;6.10;99.90
18868;DHT22;9563;49.240;9.088;2022-11-20T06:06:13;6.10;99.90
18868;DHT22;9563;49.240;9.088;2022-11-20T06:08:40;6.10;99.90
18868;DHT22;9563;49.240;9.088;2022-11-20T06:11:09;6.10;99.90
18868;DHT22;9563;49.240;9.088;2022-11-20T06:13:36;6.20;99.90
18868;DHT22;9563;49.240;9.088;2022-11-20T06:16:04;6.20;99.90
18868;DHT22;9563;49.240;9.088;2022-11-20T06:18:31;6.20;99.90
18868;DHT22;9563;49.240;9.088;2022-11-20T06:21:05;6.20;99.90
18868;DHT22;9563;49.240;9.088;2022-11-20T06:23:33;6.20;99.90
18868;DHT22;9563;49.240;9.088;2022-11-20T06:26:01;6.20;99.90
18868;DHT22;9563;49.240;9.088;2022-11-20T06:28:29;6.30;99.90
18868;DHT22;9563;49.240;9.088;2022-11-20T06:30:55;6.30;99.90
18868;DHT22;9563;49.240;9.088;2022-11-20T06:33:22;6.30;99.90
18868;DHT22;9563;49.240;9.088;2022-11-20T06:35:49;6.40;99.90
18868;DHT22;9563;49.240;9.088;2022-11-20T06:38:18;6.40;99.90
18868;DHT22;9563;49.240;9.088;2022-11-20T06:40:44;6.30;99.90
18868;DHT22;9563;49.240;9.088;2022-11-20T06:43:11;6.30;99.90
18868;DHT22;9563;49.240;9.088;2022-11-20T06:45:38;6.20;99.90
18868;DHT22;9563;49.240;9.088;2022-11-20T06:48:05;6.20;99.90
18868;DHT22;9563;49.240;9.088;2022-11-20T06:50:32;6.20;99.90
18868;DHT22;9563;49.240;9.088;2022-11-20T06:53:01;6.20;99.90
18868;DHT22;9563;49.240;9.088;2022-11-20T06:55:30;6.20;99.90
18868;DHT22;9563;49.240;9.088;2022-11-20T06:57:57;6.20;99.90
18868;DHT22;9563;49.240;9.088;2022-11-20T07:00:24;6.20;99.90
18868;DHT22;9563;49.240;9.088;2022-11-20T07:02:51;6.20;99.90
18868;DHT22;9563;49.240;9.088;2022-11-20T07:05:18;6.20;99.90
18868;DHT22;9563;49.240;9.088;2022-11-20T07:07:45;6.20;99.90
18868;DHT22;9563;49.240;9.088;2022-11-20T07:10:12;6.20;99.90
18868;DHT22;9563;49.240;9.088;2022-11-20T07:12:40;6.20;99.90
18868;DHT22;9563;49.240;9.088;2022-11-20T07:15:08;6.20;99.90
18868;DHT22;9563;49.240;9.088;2022-11-20T07:17:34;6.20;99.90
18868;DHT22;9563;49.240;9.088;2022-11-20T07:20:01;6.20;99.90
18868;DHT22;9563;49.240;9.088;2022-11-20T07:22:29;6.20;99.90
18868;DHT22;9563;49.240;9.088;2022-11-20T07:24:55;6.30;99.90
18868;DHT22;9563;49.240;9.088;2022-11-20T07:27:22;6.30;99.90
18868;DHT22;9563;49.240;9.088;2022-11-20T07:29:50;6.30;99.90
18868;DHT22;9563;49.240;9.088;2022-11-20T07:32:17;6.30;99.90
18868;DHT22;9563;49.240;9.088;2022-11-20T07:34:44;6.30;99.90
18868;DHT22;9563;49.240;9.088;2022-11-20T07:37:11;6.30;99.90
18868;DHT22;9563;49.240;9.088;2022-11-20T07:39:38;6.30;99.90
18868;DHT22;9563;49.240;9.088;2022-11-20T07:42:06;6.30;99.90
18868;DHT22;9563;49.240;9.088;2022-11-20T07:44:33;6.30;99.90
18868;DHT22;9563;49.240;9.088;2022-11-20T07:47:01;6.30;99.90
18868;DHT22;9563;49.240;9.088;2022-11-20T07:49:28;6.40;99.90
18868;DHT22;9563;49.240;9.088;2022-11-20T07:51:55;6.40;99.90
18868;DHT22;9563;49.240;9.088;2022-11-20T07:54:23;6.40;99.90
18868;DHT22;9563;49.240;9.088;2022-11-20T07:56:50;6.40;99.90
18868;DHT22;9563;49.240;9.088;2022-11-20T07:59:16;6.40;99.90
18868;DHT22;9563;49.240;9.088;2022-11-20T08:01:44;6.40;99.90
18868;DHT22;9563;49.240;9.088;2022-11-20T08:04:12;6.40;99.90
18868;DHT22;9563;49.240;9.088;2022-11-20T08:06:41;6.50;99.90
18868;DHT22;9563;49.240;9.088;2022-11-20T08:09:08;6.50;99.90
18868;DHT22;9563;49.240;9.088;2022-11-20T08:11:35;6.50;99.90
18868;DHT22;9563;49.240;9.088;2022-11-20T08:14:20;6.50;99.90
18868;DHT22;9563;49.240;9.088;2022-11-20T08:16:49;6.50;99.90
18868;DHT22;9563;49.240;9.088;2022-11-20T08:19:18;6.50;99.90
18868;DHT22;9563;49.240;9.088;2022-11-20T08:21:45;6.50;99.90
18868;DHT22;9563;49.240;9.088;2022-11-20T08:24:12;6.50;99.90
18868;DHT22;9563;49.240;9.088;2022-11-20T08:26:39;6.50;99.90
18868;DHT22;9563;49.240;9.088;2022-11-20T08:29:07;6.50;99.90
18868;DHT22;9563;49.240;9.088;2022-11-20T08:31:34;6.60;99.90
18868;DHT22;9563;49.240;9.088;2022-11-20T08:34:01;6.60;99.90
18868;DHT22;9563;49.240;9.088;2022-11-20T08:36:32;6.60;99.90
18868;DHT22;9563;49.240;9.088;2022-11-20T08:39:00;6.60;99.90
18868;DHT22;9563;49.240;9.088;2022-11-20T08:41:27;6.60;99.90
18868;DHT22;9563;49.240;9.088;2022-11-20T08:43:57;6.60;99.90
18868;DHT22;9563;49.240;9.088;2022-11-20T08:46:26;6.60;99.90
18868;DHT22;9563;49.240;9.088;2022-11-20T08:48:54;6.70;99.90
18868;DHT22;9563;49.240;9.088;2022-11-20T08:51:21;6.70;99.90
18868;DHT22;9563;49.240;9.088;2022-11-20T08:53:49;6.70;99.90
18868;DHT22;9563;49.240;9.088;2022-11-20T08:56:17;6.70;99.90
18868;DHT22;9563;49.240;9.088;2022-11-20T08:58:44;6.80;99.90
18868;DHT22;9563;49.240;9.088;2022-11-20T09:01:11;6.80;99.90
18868;DHT22;9563;49.240;9.088;2022-11-20T09:03:38;6.80;99.90
18868;DHT22;9563;49.240;9.088;2022-11-20T09:06:06;6.80;99.90
18868;DHT22;9563;49.240;9.088;2022-11-20T09:08:34;6.90;99.90
18868;DHT22;9563;49.240;9.088;2022-11-20T09:11:04;6.90;99.90
18868;DHT22;9563;49.240;9.088;2022-11-20T09:13:32;6.90;99.90
18868;DHT22;9563;49.240;9.088;2022-11-20T09:16:01;6.90;99.90
18868;DHT22;9563;49.240;9.088;2022-11-20T09:18:29;7.00;99.90
18868;DHT22;9563;49.240;9.088;2022-11-20T09:20:58;7.00;99.90
18868;DHT22;9563;49.240;9.088;2022-11-20T09:23:25;7.00;99.90
18868;DHT22;9563;49.240;9.088;2022-11-20T09:25:53;6.90;99.90
18868;DHT22;9563;49.240;9.088;2022-11-20T09:28:23;7.00;99.90
18868;DHT22;9563;49.240;9.088;2022-11-20T09:30:50;6.90;99.90
18868;DHT22;9563;49.240;9.088;2022-11-20T09:33:17;7.00;99.90
18868;DHT22;9563;49.240;9.088;2022-11-20T09:35:44;6.90;99.90
18868;DHT22;9563;49.240;9.088;2022-11-20T09:38:11;6.90;99.90
18868;DHT22;9563;49.240;9.088;2022-11-20T09:40:44;7.00;99.90
18868;DHT22;9563;49.240;9.088;2022-11-20T09:43:15;7.00;99.90
18868;DHT22;9563;49.240;9.088;2022-11-20T09:45:56;7.00;99.90
18868;DHT22;9563;49.240;9.088;2022-11-20T09:48:42;7.00;99.90
18868;DHT22;9563;49.240;9.088;2022-11-20T09:51:20;7.10;99.90
18868;DHT22;9563;49.240;9.088;2022-11-20T09:54:03;7.00;99.90
18868;DHT22;9563;49.240;9.088;2022-11-20T09:56:33;7.10;99.90
18868;DHT22;9563;49.240;9.088;2022-11-20T09:59:04;7.10;99.90
18868;DHT22;9563;49.240;9.088;2022-11-20T10:01:36;7.10;99.90
18868;DHT22;9563;49.240;9.088;2022-11-20T10:04:11;7.10;99.90
18868;DHT22;9563;49.240;9.088;2022-11-20T10:06:44;7.20;99.90
18868;DHT22;9563;49.240;9.088;2022-11-20T10:09:21;7.20;99.90
18868;DHT22;9563;49.240;9.088;2022-11-20T10:11:59;7.20;99.90
18868;DHT22;9563;49.240;9.088;2022-11-20T10:14:38;7.20;99.90
18868;DHT22;9563;49.240;9.088;2022-11-20T10:17:19;7.30;99.90
18868;DHT22;9563;49.240;9.088;2022-11-20T10:20:01;7.30;99.90
18868;DHT22;9563;49.240;9.088;2022-11-20T10:22:40;7.30;99.90
18868;DHT22;9563;49.240;9.088;2022-11-20T10:25:14;7.40;99.90
18868;DHT22;9563;49.240;9.088;2022-11-20T10:27:56;7.40;99.90
18868;DHT22;9563;49.240;9.088;2022-11-20T10:30:28;7.30;99.90
18868;DHT22;9563;49.240;9.088;2022-11-20T10:33:00;7.40;99.90
18868;DHT22;9563;49.240;9.088;2022-11-20T10:35:35;7.30;99.90
18868;DHT22;9563;49.240;9.088;2022-11-20T10:38:07;7.30;99.90
18868;DHT22;9563;49.240;9.088;2022-11-20T10:40:39;7.30;99.90
18868;DHT22;9563;49.240;9.088;2022-11-20T10:43:11;7.30;99.90
18868;DHT22;9563;49.240;9.088;2022-11-20T10:45:51;7.30;99.90
18868;DHT22;9563;49.240;9.088;2022-11-20T10:48:23;7.30;99.90
18868;DHT22;9563;49.240;9.088;2022-11-20T10:51:12;7.30;99.90
18868;DHT22;9563;49.240;9.088;2022-11-20T10:53:54;7.40;99.90
18868;DHT22;9563;49.240;9.088;2022-11-20T10:56:27;7.40;99.90
18868;DHT22;9563;49.240;9.088;2022-11-20T10:59:08;7.30;99.90
18868;DHT22;9563;49.240;9.088;2022-11-20T11:01:40;7.40;99.90
18868;DHT22;9563;49.240;9.088;2022-11-20T11:04:23;7.40;99.90
18868;DHT22;9563;49.240;9.088;2022-11-20T11:07:02;7.40;99.90
18868;DHT22;9563;49.240;9.088;2022-11-20T11:09:34;7.40;99.90
18868;DHT22;9563;49.240;9.088;2022-11-20T11:12:07;7.40;99.90
18868;DHT22;9563;49.240;9.088;2022-11-20T11:14:42;7.50;99.90
18868;DHT22;9563;49.240;9.088;2022-11-20T11:17:24;7.50;99.90
18868;DHT22;9563;49.240;9.088;2022-11-20T11:20:25;7.50;99.90
18868;DHT22;9563;49.240;9.088;2022-11-20T11:22:54;7.50;99.90
18868;DHT22;9563;49.240;9.088;2022-11-20T11:25:25;7.40;99.90
18868;DHT22;9563;49.240;9.088;2022-11-20T11:27:55;7.40;99.90
18868;DHT22;9563;49.240;9.088;2022-11-20T11:30:25;7.40;99.90
18868;DHT22;9563;49.240;9.088;2022-11-20T11:33:03;7.40;99.90
18868;DHT22;9563;49.240;9.088;2022-11-20T11:35:33;7.40;99.90
18868;DHT22;9563;49.240;9.088;2022-11-20T11:38:04;7.40;99.90
18868;DHT22;9563;49.240;9.088;2022-11-20T11:40:35;7.60;99.90
18868;DHT22;9563;49.240;9.088;2022-11-20T11:43:05;7.80;99.90
18868;DHT22;9563;49.240;9.088;2022-11-20T11:45:54;7.80;99.90
18868;DHT22;9563;49.240;9.088;2022-11-20T11:48:20;8.20;99.90
18868;DHT22;9563;49.240;9.088;2022-11-20T11:50:50;8.60;99.90
18868;DHT22;9563;49.240;9.088;2022-11-20T11:53:19;8.80;99.90
18868;DHT22;9563;49.240;9.088;2022-11-20T11:55:51;8.90;99.90
18868;DHT22;9563;49.240;9.088;2022-11-20T11:58:33;9.10;99.90
18868;DHT22;9563;49.240;9.088;2022-11-20T12:01:04;9.30;99.90
18868;DHT22;9563;49.240;9.088;2022-11-20T12:03:36;9.20;99.90
18868;DHT22;9563;49.240;9.088;2022-11-20T12:06:10;8.90;99.90
18868;DHT22;9563;49.240;9.088;2022-11-20T12:08:43;9.00;99.90
18868;DHT22;9563;49.240;9.088;2022-11-20T12:11:14;8.90;99.90
18868;DHT22;9563;49.240;9.088;2022-11-20T12:13:48;8.70;99.90
18868;DHT22;9563;49.240;9.088;2022-11-20T12:16:19;8.70;99.90
18868;DHT22;9563;49.240;9.088;2022-11-20T12:18:49;8.60;99.90
18868;DHT22;9563;49.240;9.088;2022-11-20T12:21:28;8.60;99.90
18868;DHT22;9563;49.240;9.088;2022-11-20T12:24:14;8.60;99.90
18868;DHT22;9563;49.240;9.088;2022-11-20T12:26:55;8.60;99.90
18868;DHT22;9563;49.240;9.088;2022-11-20T12:29:37;8.70;99.90
18868;DHT22;9563;49.240;9.088;2022-11-20T12:32:36;8.80;99.90
18868;DHT22;9563;49.240;9.088;2022-11-20T12:35:23;8.90;99.90
18868;DHT22;9563;49.240;9.088;2022-11-20T12:38:04;8.90;99.90
18868;DHT22;9563;49.240;9.088;2022-11-20T12:40:43;9.00;99.90
18868;DHT22;9563;49.240;9.088;2022-11-20T12:43:18;8.90;99.90
18868;DHT22;9563;49.240;9.088;2022-11-20T12:46:18;8.90;99.90
18868;DHT22;9563;49.240;9.088;2022-11-20T12:49:08;8.70;99.90
18868;DHT22;9563;49.240;9.088;2022-11-20T12:52:06;8.90;99.90
18868;DHT22;9563;49.240;9.088;2022-11-20T12:55:09;9.70;99.90
18868;DHT22;9563;49.240;9.088;2022-11-20T12:57:46;10.40;99.90
18868;DHT22;9563;49.240;9.088;2022-11-20T13:00:18;10.40;99.90
18868;DHT22;9563;49.240;9.088;2022-11-20T13:03:13;10.40;99.90
18868;DHT22;9563;49.240;9.088;2022-11-20T13:05:51;10.00;99.90
18868;DHT22;9563;49.240;9.088;2022-11-20T13:08:21;9.60;99.90
18868;DHT22;9563;49.240;9.088;2022-11-20T13:10:56;9.20;99.90
18868;DHT22;9563;49.240;9.088;2022-11-20T13:13:32;9.00;99.90
18868;DHT22;9563;49.240;9.088;2022-11-20T13:16:04;8.80;99.90
18868;DHT22;9563;49.240;9.088;2022-11-20T13:18:37;8.70;99.90
18868;DHT22;9563;49.240;9.088;2022-11-20T13:21:17;8.70;99.90
18868;DHT22;9563;49.240;9.088;2022-11-20T13:23:45;9.00;99.90
18868;DHT22;9563;49.240;9.088;2022-11-20T13:26:19;9.40;99.90
18868;DHT22;9563;49.240;9.088;2022-11-20T13:28:48;9.60;99.90
18868;DHT22;9563;49.240;9.088;2022-11-20T13:31:31;9.60;99.90
18868;DHT22;9563;49.240;9.088;2022-11-20T13:34:01;9.80;99.90
18868;DHT22;9563;49.240;9.088;2022-11-20T13:36:29;9.80;99.90
18868;DHT22;9563;49.240;9.088;2022-11-20T13:38:58;9.90;99.90
18868;DHT22;9563;49.240;9.088;2022-11-20T13:41:28;9.90;99.90
18868;DHT22;9563;49.240;9.088;2022-11-20T13:44:09;9.80;99.90
18868;DHT22;9563;49.240;9.088;2022-11-20T13:46:38;9.50;99.90
18868;DHT22;9563;49.240;9.088;2022-11-20T13:49:14;9.40;99.90
18868;DHT22;9563;49.240;9.088;2022-11-20T13:51:44;9.30;99.90
18868;DHT22;9563;49.240;9.088;2022-11-20T13:57:42;9.00;99.90
18868;DHT22;9563;49.240;9.088;2022-11-20T14:00:15;8.80;99.90
18868;DHT22;9563;49.240;9.088;2022-11-20T14:02:43;8.70;99.90
18868;DHT22;9563;49.240;9.088;2022-11-20T14:05:19;8.70;99.90
18868;DHT22;9563;49.240;9.088;2022-11-20T14:07:48;8.60;99.90
18868;DHT22;9563;49.240;9.088;2022-11-20T14:10:24;8.50;99.90
18868;DHT22;9563;49.240;9.088;2022-11-20T14:12:52;8.50;99.90
18868;DHT22;9563;49.240;9.088;2022-11-20T14:15:28;8.50;99.90
18868;DHT22;9563;49.240;9.088;2022-11-20T14:17:55;8.40;99.90
18868;DHT22;9563;49.240;9.088;2022-11-20T14:20:25;8.40;99.90
18868;DHT22;9563;49.240;9.088;2022-11-20T14:22:54;8.50;99.90
18868;DHT22;9563;49.240;9.088;2022-11-20T14:25:23;8.60;99.90
18868;DHT22;9563;49.240;9.088;2022-11-20T14:27:55;8.70;99.90
18868;DHT22;9563;49.240;9.088;2022-11-20T14:30:26;8.70;99.90
18868;DHT22;9563;49.240;9.088;2022-11-20T14:32:55;8.70;99.90
18868;DHT22;9563;49.240;9.088;2022-11-20T14:35:25;8.60;99.90
18868;DHT22;9563;49.240;9.088;2022-11-20T14:37:52;8.60;99.90
18868;DHT22;9563;49.240;9.088;2022-11-20T14:40:25;8.60;99.90
18868;DHT22;9563;49.240;9.088;2022-11-20T14:42:54;8.50;99.90
18868;DHT22;9563;49.240;9.088;2022-11-20T14:45:23;8.40;99.90
18868;DHT22;9563;49.240;9.088;2022-11-20T14:47:51;8.40;99.90
18868;DHT22;9563;49.240;9.088;2022-11-20T14:50:22;8.30;99.90
18868;DHT22;9563;49.240;9.088;2022-11-20T14:52:51;8.30;99.90
18868;DHT22;9563;49.240;9.088;2022-11-20T14:55:26;8.20;99.90
18868;DHT22;9563;49.240;9.088;2022-11-20T14:57:59;8.10;99.90
18868;DHT22;9563;49.240;9.088;2022-11-20T15:00:27;8.10;99.90
18868;DHT22;9563;49.240;9.088;2022-11-20T15:02:55;8.10;99.90
18868;DHT22;9563;49.240;9.088;2022-11-20T15:05:23;8.10;99.90
18868;DHT22;9563;49.240;9.088;2022-11-20T15:08:05;8.00;99.90
18868;DHT22;9563;49.240;9.088;2022-11-20T15:10:32;7.90;99.90
18868;DHT22;9563;49.240;9.088;2022-11-20T15:13:04;7.80;99.90
18868;DHT22;9563;49.240;9.088;2022-11-20T15:15:35;7.80;99.90
18868;DHT22;9563;49.240;9.088;2022-11-20T15:18:03;7.70;99.90
18868;DHT22;9563;49.240;9.088;2022-11-20T15:20:32;7.60;99.90
18868;DHT22;9563;49.240;9.088;2022-11-20T15:23:00;7.60;99.90
18868;DHT22;9563;49.240;9.088;2022-11-20T15:25:27;7.50;99.90
18868;DHT22;9563;49.240;9.088;2022-11-20T15:27:56;7.50;99.90
18868;DHT22;9563;49.240;9.088;2022-11-20T15:30:25;7.50;99.90
18868;DHT22;9563;49.240;9.088;2022-11-20T15:32:51;7.40;99.90
18868;DHT22;9563;49.240;9.088;2022-11-20T15:35:19;7.40;99.90
18868;DHT22;9563;49.240;9.088;2022-11-20T15:37:46;7.40;99.90
18868;DHT22;9563;49.240;9.088;2022-11-20T15:40:12;7.30;99.90
18868;DHT22;9563;49.240;9.088;2022-11-20T15:42:40;7.30;99.90
18868;DHT22;9563;49.240;9.088;2022-11-20T15:45:32;7.20;99.90
18868;DHT22;9563;49.240;9.088;2022-11-20T15:48:00;7.20;99.90
18868;DHT22;9563;49.240;9.088;2022-11-20T15:50:33;7.20;99.90
18868;DHT22;9563;49.240;9.088;2022-11-20T15:53:01;7.20;99.90
18868;DHT22;9563;49.240;9.088;2022-11-20T15:55:28;7.10;99.90
18868;DHT22;9563;49.240;9.088;2022-11-20T15:57:54;7.10;99.90
18868;DHT22;9563;49.240;9.088;2022-11-20T16:00:21;7.20;99.90
18868;DHT22;9563;49.240;9.088;2022-11-20T16:02:50;7.10;99.90
18868;DHT22;9563;49.240;9.088;2022-11-20T16:05:17;7.20;99.90
18868;DHT22;9563;49.240;9.088;2022-11-20T16:07:44;7.20;99.90
18868;DHT22;9563;49.240;9.088;2022-11-20T16:10:11;7.20;99.90
18868;DHT22;9563;49.240;9.088;2022-11-20T16:12:38;7.30;99.90
18868;DHT22;9563;49.240;9.088;2022-11-20T16:15:22;7.30;99.90
18868;DHT22;9563;49.240;9.088;2022-11-20T16:18:10;7.20;99.90
18868;DHT22;9563;49.240;9.088;2022-11-20T16:20:38;7.10;99.90
18868;DHT22;9563;49.240;9.088;2022-11-20T16:23:06;7.20;99.90
18868;DHT22;9563;49.240;9.088;2022-11-20T16:25:33;7.10;99.90
18868;DHT22;9563;49.240;9.088;2022-11-20T16:28:01;7.10;99.90